KBBG

Branson Airport

Branson, Missouri, USA
METAR KBBG 221445Z 00000KT 4SM BR OVC008 14/14 A3021
Observed Flight Rules
Sep-22 @ 14:45 UTC (31 minutes ago) Instrument Flight Rules
Visibility Clouds Conditions
4 miles
Temperatures Readings
Current 14°C / 57°F
Dewpoint 14°C / 57°F
Humidity 100%
Altimeter 30.21" Hg
Pressure 1023 hPa
Elevation 397
METAR KBBG 221445Z 00000KT 4SM BR OVC008 14/14 A3021
Observed Flight Rules
Sep-22 @ 14:45 UTC
(31 minutes ago)
IFR
Clouds
Conditions
Temperature Dewpoint
14°C / 57°F 14°C / 57°F
Humidity Altimeter Pressure
100% 30.21" Hg 1023 hPa